Time;durP1;ratioP1;P1;durP2;ratioP2;P2;SDS_P1;SDS_P2;PMS_P1;PMS_P2;Temp;Humidity;BMP_temperature;BMP_pressure;BME280_temperature;BME280_humidity;BME280_pressure;Samples;Min_cycle;Max_cycle;Signal;HPM_P1;HPM_P2
2023/12/19 00:00:25;;;;;;;73.07;35.03;;;;;;;-146.25;100.00;52599.34;2081501;28;20042;-72
2023/12/19 00:01:27;;;;;;;70.55;33.20;;;;;;;-146.25;100.00;52635.84;2080206;28;37895;-72
2023/12/19 00:02:29;;;;;;;66.68;33.17;;;;;;;-146.25;100.00;52648.00;2081274;28;20161;-72
2023/12/19 00:03:31;;;;;;;65.95;32.85;;;;;;;-146.25;100.00;52664.22;2080608;28;20100;-72
2023/12/19 00:04:33;;;;;;;64.65;33.13;;;;;;;-146.25;100.00;52645.97;2080061;28;35032;-72
2023/12/19 00:05:35;;;;;;;72.22;34.63;;;;;;;-146.25;100.00;52605.44;2080167;28;35659;-72
2023/12/19 00:06:37;;;;;;;64.55;33.55;;;;;;;-146.25;100.00;52662.22;2080094;28;32571;-72
2023/12/19 00:07:40;;;;;;;66.45;33.13;;;;;;;-146.25;100.00;52599.34;2080356;28;35278;-71
2023/12/19 00:08:42;;;;;;;63.95;32.70;;;;;;;-146.25;100.00;52625.72;2080874;28;31268;-72
2023/12/19 00:09:46;;;;;;;64.95;34.53;;;;;;;-146.25;100.00;52609.50;2080192;28;36474;-71
2023/12/19 00:10:48;;;;;;;64.53;32.50;;;;;;;-146.25;100.00;52631.78;2080607;28;35115;-71
2023/12/19 00:11:49;;;;;;;65.07;33.33;;;;;;;-146.25;100.00;52591.25;2080827;28;20145;-71
2023/12/19 00:12:51;;;;;;;63.88;31.85;;;;;;;-146.25;100.00;52611.50;2080721;28;37668;-71
2023/12/19 00:13:53;;;;;;;67.05;33.67;;;;;;;-146.25;100.00;52652.06;2080445;28;32647;-72
2023/12/19 00:14:55;;;;;;;64.00;34.28;;;;;;;-146.25;100.00;52672.34;2080539;28;32295;-71
2023/12/19 00:15:57;;;;;;;63.95;33.80;;;;;;;-146.25;100.00;52615.56;2080057;28;37366;-72
2023/12/19 00:17:01;;;;;;;58.78;31.80;;;;;;;-146.25;100.00;52668.28;2080799;28;33029;-71
2023/12/19 00:18:03;;;;;;;63.45;32.55;;;;;;;-146.25;100.00;52591.25;2080206;28;36069;-71
2023/12/19 00:19:07;;;;;;;64.28;32.60;;;;;;;-146.25;100.00;52635.84;2080394;28;35871;-71
2023/12/19 00:20:10;;;;;;;61.05;31.83;;;;;;;-146.25;100.00;52625.72;2081257;28;20038;-71
2023/12/19 00:21:12;;;;;;;59.63;32.22;;;;;;;-146.25;100.00;52611.50;2080146;28;37024;-71
2023/12/19 00:22:15;;;;;;;61.30;33.42;;;;;;;-146.25;100.00;52607.47;2071707;28;29713;-71
2023/12/19 00:23:17;;;;;;;66.82;32.80;;;;;;;-146.25;100.00;52621.66;2071886;28;32960;-71
2023/12/19 00:24:19;;;;;;;65.15;33.10;;;;;;;-146.25;100.00;52635.84;2080119;28;37532;-71
2023/12/19 00:25:23;;;;;;;59.72;31.17;;;;;;;-146.25;100.00;52641.94;2080967;28;20042;-71
2023/12/19 00:26:24;;;;;;;64.90;33.03;;;;;;;-146.25;100.00;52597.31;2079940;28;35036;-71
2023/12/19 00:27:26;;;;;;;64.38;32.90;;;;;;;-146.25;100.00;52641.94;2080502;28;33403;-71
2023/12/19 00:28:28;;;;;;;60.25;31.60;;;;;;;-146.25;100.00;52623.69;2080842;28;20053;-71
2023/12/19 00:29:30;;;;;;;56.75;30.25;;;;;;;-146.25;100.00;52648.00;2080388;28;35420;-72
2023/12/19 00:30:31;;;;;;;55.33;30.23;;;;;;;-146.25;100.00;52631.78;2079852;28;34366;-71
2023/12/19 00:31:38;;;;;;;58.05;30.42;;;;;;;-146.25;100.00;52615.56;2080894;28;20046;-71
2023/12/19 00:32:39;;;;;;;58.72;29.40;;;;;;;-146.25;100.00;52615.56;2079982;28;34790;-71
2023/12/19 00:33:42;;;;;;;57.58;29.98;;;;;;;-146.25;100.00;52627.75;2080731;28;33019;-71
2023/12/19 00:34:43;;;;;;;53.80;30.15;;;;;;;-146.25;100.00;52643.97;2081051;28;20882;-71
2023/12/19 00:35:45;;;;;;;55.05;30.63;;;;;;;-146.25;100.00;52617.59;2080464;28;31530;-71
2023/12/19 00:36:47;;;;;;;53.50;29.38;;;;;;;-146.25;100.00;52619.63;2079871;28;32754;-71
2023/12/19 00:37:49;;;;;;;56.35;28.83;;;;;;;-146.25;100.00;52603.41;2081296;28;20041;-72
2023/12/19 00:38:50;;;;;;;55.97;29.20;;;;;;;-146.25;100.00;52633.81;2079804;28;34129;-71
2023/12/19 00:39:52;;;;;;;53.72;28.55;;;;;;;-146.25;100.00;52631.78;2080125;28;35913;-71
2023/12/19 00:40:54;;;;;;;55.88;28.60;;;;;;;-146.25;100.00;52609.50;2080341;28;31709;-71
2023/12/19 00:41:56;;;;;;;56.72;29.40;;;;;;;-146.25;100.00;52637.88;2080168;28;38673;-71
2023/12/19 00:42:57;;;;;;;54.47;28.55;;;;;;;-146.25;100.00;52631.78;2080585;28;33425;-71
2023/12/19 00:44:00;;;;;;;57.95;29.30;;;;;;;-146.25;100.00;52639.91;2081131;28;20080;-71
2023/12/19 00:45:02;;;;;;;54.95;29.15;;;;;;;-146.25;100.00;52660.19;2079735;28;37459;-71
2023/12/19 00:46:04;;;;;;;52.83;28.58;;;;;;;-146.25;100.00;52648.00;2080517;28;34869;-72
2023/12/19 00:47:10;;;;;;;55.38;27.80;;;;;;;-146.25;100.00;52637.88;2079868;28;34600;-72
2023/12/19 00:48:13;;;;;;;52.40;27.38;;;;;;;-146.25;100.00;52666.25;2080300;28;37839;-71
2023/12/19 00:49:15;;;;;;;52.45;27.30;;;;;;;-146.25;100.00;52591.25;2079973;28;33908;-71
2023/12/19 00:50:18;;;;;;;55.00;27.85;;;;;;;-146.25;100.00;52639.91;2080058;28;34744;-71
2023/12/19 00:51:20;;;;;;;53.17;29.17;;;;;;;-146.25;100.00;52611.50;2079806;28;33314;-71
2023/12/19 00:52:22;;;;;;;47.92;26.70;;;;;;;-146.25;100.00;52635.84;2080865;28;20913;-71
2023/12/19 00:53:24;;;;;;;52.85;27.67;;;;;;;-146.25;100.00;52623.69;2080658;28;35096;-71
2023/12/19 00:54:26;;;;;;;47.30;26.70;;;;;;;-146.25;100.00;52648.00;2080091;28;34986;-71
2023/12/19 00:55:28;;;;;;;48.92;27.00;;;;;;;-146.25;100.00;52639.91;2079949;28;35237;-71
2023/12/19 00:56:30;;;;;;;47.25;26.70;;;;;;;-146.25;100.00;52617.59;2080334;28;36984;-71
2023/12/19 00:57:34;;;;;;;48.33;27.23;;;;;;;-146.25;100.00;52619.63;2080507;28;20038;-72
2023/12/19 00:58:37;;;;;;;51.72;27.10;;;;;;;-146.25;100.00;52643.97;2080167;28;37470;-71
2023/12/19 00:59:41;;;;;;;43.38;26.13;;;;;;;-146.25;100.00;52631.78;2079939;28;36400;-71
2023/12/19 01:00:42;;;;;;;45.20;26.45;;;;;;;-146.25;100.00;52641.94;2079970;28;34332;-71
2023/12/19 01:01:47;;;;;;;49.78;26.52;;;;;;;-146.25;100.00;52650.03;2080320;28;25580;-71
2023/12/19 01:02:49;;;;;;;45.95;25.70;;;;;;;-146.25;100.00;52627.75;2080830;28;20042;-71
2023/12/19 01:03:51;;;;;;;45.00;25.90;;;;;;;-146.25;100.00;52625.72;2079999;28;36513;-72
2023/12/19 01:04:56;;;;;;;48.95;25.10;;;;;;;-146.25;100.00;52639.91;2071500;28;27648;-71
2023/12/19 01:06:03;;;;;;;46.80;25.88;;;;;;;-146.25;100.00;52672.34;2064153;28;20051;-71
2023/12/19 01:07:04;;;;;;;45.60;25.33;;;;;;;-146.25;100.00;52611.50;2072698;28;32899;-71
2023/12/19 01:08:06;;;;;;;44.08;25.60;;;;;;;-146.25;100.00;52641.94;2079997;28;36214;-72
2023/12/19 01:09:09;;;;;;;48.80;25.75;;;;;;;-146.25;100.00;52656.13;2080041;28;37249;-71
2023/12/19 01:10:11;;;;;;;47.05;25.60;;;;;;;-146.25;100.00;52617.59;2080579;28;20462;-71
2023/12/19 01:11:15;;;;;;;45.65;25.30;;;;;;;-146.25;100.00;52619.63;2070794;28;36396;-72
2023/12/19 01:12:20;;;;;;;41.97;25.50;;;;;;;-146.25;100.00;52631.78;2070997;28;35683;-72
2023/12/19 01:13:22;;;;;;;44.30;25.73;;;;;;;-146.25;100.00;52680.47;2080777;28;20073;-71
2023/12/19 01:14:24;;;;;;;44.42;25.40;;;;;;;-146.25;100.00;52603.41;2079834;28;37276;-71
2023/12/19 01:15:26;;;;;;;46.83;26.05;;;;;;;-146.25;100.00;52633.81;2079912;28;34496;-72
2023/12/19 01:16:28;;;;;;;46.38;25.55;;;;;;;-146.25;100.00;52603.41;2071579;28;20082;-72
2023/12/19 01:17:30;;;;;;;44.58;25.70;;;;;;;-146.25;100.00;52595.28;2071676;28;36847;-72
2023/12/19 01:18:32;;;;;;;45.97;25.83;;;;;;;-146.25;100.00;52601.38;2080066;28;33576;-72
2023/12/19 01:19:34;;;;;;;48.15;24.27;;;;;;;-146.25;100.00;52631.78;2079781;28;34808;-72
2023/12/19 01:20:35;;;;;;;47.33;25.35;;;;;;;-146.25;100.00;52648.00;2079783;28;36909;-72
2023/12/19 01:21:38;;;;;;;39.78;23.52;;;;;;;-146.25;100.00;52650.03;2080305;28;20164;-71
2023/12/19 01:22:40;;;;;;;44.67;25.45;;;;;;;-146.25;100.00;52603.41;2079672;28;34933;-71
2023/12/19 01:23:45;;;;;;;42.78;24.25;;;;;;;-146.25;100.00;52625.72;2080685;28;20034;-72
2023/12/19 01:24:49;;;;;;;48.10;26.60;;;;;;;-146.25;100.00;52621.66;2080526;28;20034;-71
2023/12/19 01:25:51;;;;;;;43.20;24.98;;;;;;;-146.25;100.00;52621.66;2080132;28;35894;-71
2023/12/19 01:26:52;;;;;;;45.63;25.35;;;;;;;-146.25;100.00;52631.78;2079865;28;36947;-71
2023/12/19 01:27:54;;;;;;;46.95;25.80;;;;;;;-146.25;100.00;52656.13;2080042;28;33811;-72
2023/12/19 01:28:58;;;;;;;41.75;24.70;;;;;;;-146.25;100.00;52629.75;2071041;28;32527;-72
2023/12/19 01:30:00;;;;;;;46.83;25.35;;;;;;;-146.25;100.00;52633.81;2072153;28;20034;-71
2023/12/19 01:31:02;;;;;;;43.53;24.45;;;;;;;-146.25;100.00;52623.69;2079883;28;29659;-71
2023/12/19 01:32:05;;;;;;;45.88;24.52;;;;;;;-146.25;100.00;52635.84;2080522;28;24291;-71
2023/12/19 01:33:10;;;;;;;43.42;24.83;;;;;;;-146.25;100.00;52627.75;2080196;28;20048;-71
2023/12/19 01:34:12;;;;;;;46.65;26.00;;;;;;;-146.25;100.00;52615.56;2079696;28;36362;-72
2023/12/19 01:35:15;;;;;;;48.80;25.60;;;;;;;-146.25;100.00;52607.47;2079756;28;33445;-71
2023/12/19 01:36:17;;;;;;;47.33;25.30;;;;;;;-146.25;100.00;52627.75;2080170;28;20038;-71
2023/12/19 01:37:19;;;;;;;49.53;25.77;;;;;;;-146.25;100.00;52633.81;2079962;28;35222;-71
2023/12/19 01:38:20;;;;;;;50.08;25.98;;;;;;;-146.25;100.00;52627.75;2079080;28;37908;-71
2023/12/19 01:39:22;;;;;;;45.05;25.73;;;;;;;-146.25;100.00;52631.78;2079913;28;32063;-72
2023/12/19 01:40:31;;;;;;;48.38;26.38;;;;;;;-146.25;100.00;52605.44;2071260;28;34951;-71
2023/12/19 01:41:33;;;;;;;48.00;26.00;;;;;;;-146.25;100.00;52676.41;2073121;28;20089;-72
2023/12/19 01:42:35;;;;;;;46.75;25.08;;;;;;;-146.25;100.00;52631.78;2079920;28;38782;-71
2023/12/19 01:43:36;;;;;;;46.15;25.70;;;;;;;-146.25;100.00;52639.91;2070655;28;35995;-72
2023/12/19 01:44:38;;;;;;;47.20;27.10;;;;;;;-146.25;100.00;52635.84;2071217;28;33089;-71
2023/12/19 01:45:40;;;;;;;46.97;26.92;;;;;;;-146.25;100.00;52643.97;2079616;28;35620;-71
2023/12/19 01:46:42;;;;;;;50.67;26.05;;;;;;;-146.25;100.00;52613.53;2079936;28;34303;-71
2023/12/19 01:47:46;;;;;;;48.33;26.02;;;;;;;-146.25;100.00;52613.53;2079575;28;34939;-71
2023/12/19 01:48:50;;;;;;;46.28;25.00;;;;;;;-146.25;100.00;52660.19;2079712;28;35869;-71
2023/12/19 01:49:52;;;;;;;51.10;28.00;;;;;;;-146.25;100.00;52668.28;2071377;28;20907;-72
2023/12/19 01:50:55;;;;;;;50.08;26.42;;;;;;;-146.25;100.00;52639.91;2071896;28;35193;-72
2023/12/19 01:51:57;;;;;;;44.80;25.05;;;;;;;-146.25;100.00;52615.56;2070338;28;35169;-71
2023/12/19 01:53:01;;;;;;;48.47;26.58;;;;;;;-146.25;100.00;52658.16;2071528;28;20042;-71
2023/12/19 01:54:06;;;;;;;48.13;25.52;;;;;;;-146.25;100.00;52631.78;2071141;28;34468;-71
2023/12/19 01:55:09;;;;;;;48.70;25.58;;;;;;;-146.25;100.00;52662.22;2070801;28;37542;-71
2023/12/19 01:56:13;;;;;;;45.35;26.00;;;;;;;-146.25;100.00;52648.00;2070753;28;32845;-71
2023/12/19 01:57:15;;;;;;;46.13;25.00;;;;;;;-146.25;100.00;52637.88;2071495;28;38639;-71
2023/12/19 01:58:21;;;;;;;47.25;25.58;;;;;;;-146.25;100.00;52629.75;2078996;28;33739;-71
2023/12/19 01:59:23;;;;;;;47.15;26.35;;;;;;;-146.25;100.00;52652.06;2070702;28;37732;-71
2023/12/19 02:00:27;;;;;;;47.42;25.35;;;;;;;-146.25;100.00;52617.59;2070788;28;34513;-71
2023/12/19 02:01:29;;;;;;;47.00;25.20;;;;;;;-146.25;100.00;52633.81;2071699;28;33743;-72
2023/12/19 02:02:31;;;;;;;44.78;24.60;;;;;;;-146.25;100.00;52629.75;2079334;28;37980;-70
2023/12/19 02:03:34;;;;;;;50.40;27.40;;;;;;;-146.25;100.00;52601.38;2079829;28;31709;-71
2023/12/19 02:04:37;;;;;;;46.28;25.35;;;;;;;-146.25;100.00;52637.88;2079587;28;36682;-71
2023/12/19 02:05:46;;;;;;;47.50;25.50;;;;;;;-146.25;100.00;52615.56;2070958;28;35744;-72
2023/12/19 02:06:48;;;;;;;44.47;24.45;;;;;;;-146.25;100.00;52637.88;2071866;28;35308;-71
2023/12/19 02:07:50;;;;;;;48.63;26.08;;;;;;;-146.25;100.00;52625.72;2079888;28;30980;-71
2023/12/19 02:08:52;;;;;;;48.80;26.08;;;;;;;-146.25;100.00;52627.75;2079850;28;35763;-71
2023/12/19 02:09:54;;;;;;;50.90;25.90;;;;;;;-146.25;100.00;52611.50;2079707;28;33365;-72
2023/12/19 02:10:55;;;;;;;50.88;26.00;;;;;;;-146.25;100.00;52635.84;2070922;28;32086;-72
2023/12/19 02:11:58;;;;;;;46.13;24.70;;;;;;;-146.25;100.00;52597.31;2070895;28;36945;-71
2023/12/19 02:13:00;;;;;;;46.33;24.52;;;;;;;-146.25;100.00;52615.56;2071624;28;33271;-71
2023/12/19 02:14:02;;;;;;;44.72;23.92;;;;;;;-146.25;100.00;52629.75;2071172;28;33942;-71
2023/12/19 02:15:05;;;;;;;43.15;24.75;;;;;;;-146.25;100.00;52643.97;2078774;28;36612;-71
2023/12/19 02:16:07;;;;;;;44.78;24.80;;;;;;;-146.25;100.00;52637.88;2071150;28;20046;-71
2023/12/19 02:17:11;;;;;;;42.92;24.15;;;;;;;-146.25;100.00;52609.50;2070959;28;37243;-72
2023/12/19 02:18:20;;;;;;;43.72;24.38;;;;;;;-146.25;100.00;52607.47;2080033;28;20103;-72
2023/12/19 02:19:22;;;;;;;46.67;23.05;;;;;;;-146.25;100.00;52629.75;2079724;28;31612;-71
2023/12/19 02:20:23;;;;;;;46.15;25.55;;;;;;;-146.25;100.00;52643.97;2079444;28;37445;-72
2023/12/19 02:21:28;;;;;;;42.63;24.27;;;;;;;-146.25;100.00;52637.88;2079261;28;34538;-72
2023/12/19 02:22:30;;;;;;;43.63;25.55;;;;;;;-146.25;100.00;52635.84;2070889;28;34630;-72
2023/12/19 02:23:35;;;;;;;44.92;24.10;;;;;;;-146.25;100.00;52660.19;2070479;28;38197;-72
2023/12/19 02:24:37;;;;;;;43.67;24.08;;;;;;;-146.25;100.00;52627.75;2071351;28;36907;-71
2023/12/19 02:25:41;;;;;;;44.55;24.67;;;;;;;-146.25;100.00;52607.47;2079539;28;20038;-71
2023/12/19 02:26:43;;;;;;;47.83;25.65;;;;;;;-146.25;100.00;52662.22;2079082;28;36219;-71
2023/12/19 02:27:45;;;;;;;41.28;24.73;;;;;;;-146.25;100.00;52613.53;2070873;28;33529;-71
2023/12/19 02:28:52;;;;;;;41.22;23.75;;;;;;;-146.25;100.00;52623.69;2070329;28;39298;-71
2023/12/19 02:29:54;;;;;;;42.83;24.35;;;;;;;-146.25;100.00;52611.50;2070595;28;35125;-71
2023/12/19 02:30:55;;;;;;;41.92;24.75;;;;;;;-146.25;100.00;52619.63;2071848;28;34057;-71
2023/12/19 02:31:58;;;;;;;45.17;23.55;;;;;;;-146.25;100.00;52603.41;2078753;28;38648;-71
2023/12/19 02:33:01;;;;;;;43.00;24.20;;;;;;;-146.25;100.00;52623.69;2070728;28;34206;-71
2023/12/19 02:34:03;;;;;;;42.85;23.42;;;;;;;-146.25;100.00;52623.69;2071593;28;33504;-71
2023/12/19 02:35:06;;;;;;;45.92;24.88;;;;;;;-146.25;100.00;52639.91;2079514;28;36874;-71
2023/12/19 02:36:08;;;;;;;42.55;24.55;;;;;;;-146.25;100.00;52625.72;2079010;28;35795;-71
2023/12/19 02:37:10;;;;;;;43.58;24.80;;;;;;;-146.25;100.00;52621.66;2079656;28;33691;-71
2023/12/19 02:38:14;;;;;;;44.55;24.48;;;;;;;-146.25;100.00;52607.47;2079426;28;35395;-71
2023/12/19 02:39:18;;;;;;;42.10;24.60;;;;;;;-146.25;100.00;52643.97;2080124;28;20018;-70
2023/12/19 02:40:20;;;;;;;43.35;23.63;;;;;;;-146.25;100.00;52627.75;2079693;28;34758;-71
2023/12/19 02:41:22;;;;;;;44.00;24.50;;;;;;;-146.25;100.00;52605.44;2070584;28;36026;-71
2023/12/19 02:42:23;;;;;;;47.10;24.85;;;;;;;-146.25;100.00;52635.84;2070769;28;36675;-71
2023/12/19 02:43:25;;;;;;;46.50;25.52;;;;;;;-146.25;100.00;52615.56;2070452;28;36368;-71
2023/12/19 02:44:27;;;;;;;44.90;24.55;;;;;;;-146.25;100.00;52621.66;2070830;28;32984;-71
2023/12/19 02:45:31;;;;;;;43.15;24.27;;;;;;;-146.25;100.00;52637.88;2079095;28;33874;-71
2023/12/19 02:46:33;;;;;;;44.72;25.88;;;;;;;-146.25;100.00;52633.81;2079034;28;37433;-71
2023/12/19 02:47:36;;;;;;;45.45;25.38;;;;;;;-146.25;100.00;52617.59;2079437;28;34903;-71
2023/12/19 02:48:37;;;;;;;43.00;24.40;;;;;;;-146.25;100.00;52631.78;2079106;28;36449;-71
2023/12/19 02:49:39;;;;;;;46.10;25.02;;;;;;;-146.25;100.00;52631.78;2080211;28;34481;-70
2023/12/19 02:50:42;;;;;;;45.70;25.88;;;;;;;-146.25;100.00;52611.50;2081352;28;20046;-71
2023/12/19 02:51:44;;;;;;;43.70;25.08;;;;;;;-146.25;100.00;52652.06;2080233;28;33130;-71
2023/12/19 02:52:46;;;;;;;41.88;24.38;;;;;;;-146.25;100.00;52660.19;2071872;28;37734;-71
2023/12/19 02:53:47;;;;;;;46.88;24.38;;;;;;;-146.25;100.00;52668.28;2072377;28;36085;-71
2023/12/19 02:54:49;;;;;;;44.00;24.73;;;;;;;-146.25;100.00;52615.56;2080900;28;35314;-71
2023/12/19 02:55:51;;;;;;;50.03;25.65;;;;;;;-146.25;100.00;52643.97;2072039;28;39030;-70
2023/12/19 02:56:52;;;;;;;47.78;25.77;;;;;;;-146.25;100.00;52656.13;2072618;28;30973;-71
2023/12/19 02:57:54;;;;;;;51.15;25.98;;;;;;;-146.25;100.00;52652.06;2081031;28;34810;-70
2023/12/19 02:58:56;;;;;;;48.80;26.67;;;;;;;-146.25;100.00;52631.78;2071821;28;36936;-69
2023/12/19 02:59:58;;;;;;;46.83;25.60;;;;;;;-146.25;100.00;52611.50;2071786;28;36086;-71
2023/12/19 03:01:00;;;;;;;46.58;25.17;;;;;;;-146.25;100.00;52627.75;2078377;28;30168;-71
2023/12/19 03:02:02;;;;;;;45.70;23.95;;;;;;;-146.25;100.00;52668.28;2080434;28;37959;-71
2023/12/19 03:03:03;;;;;;;44.15;25.73;;;;;;;-146.25;100.00;52645.97;2080851;28;32767;-70
2023/12/19 03:04:05;;;;;;;45.95;25.80;;;;;;;-146.25;100.00;52613.53;2080738;28;35888;-70
2023/12/19 03:05:07;;;;;;;50.55;26.73;;;;;;;-146.25;100.00;52637.88;2080308;28;37705;-71
2023/12/19 03:06:12;;;;;;;46.22;26.05;;;;;;;-146.25;100.00;52591.25;2080968;28;34212;-71
2023/12/19 03:07:14;;;;;;;43.33;24.98;;;;;;;-146.25;100.00;52623.69;2080789;28;20045;-71
2023/12/19 03:08:18;;;;;;;46.17;25.27;;;;;;;-146.25;100.00;52674.38;2080905;28;36209;-71
2023/12/19 03:09:20;;;;;;;49.38;26.33;;;;;;;-146.25;100.00;52629.75;2080609;28;34519;-70
2023/12/19 03:10:21;;;;;;;42.03;24.42;;;;;;;-146.25;100.00;52617.59;2080671;28;34722;-71
2023/12/19 03:11:26;;;;;;;44.50;25.27;;;;;;;-146.25;100.00;52641.94;2080298;28;35972;-71
2023/12/19 03:12:30;;;;;;;42.13;25.55;;;;;;;-146.25;100.00;52633.81;2071061;28;34185;-71
2023/12/19 03:13:32;;;;;;;47.58;26.13;;;;;;;-146.25;100.00;52662.22;2071924;28;33237;-71
2023/12/19 03:14:36;;;;;;;45.60;26.23;;;;;;;-146.25;100.00;52637.88;2080472;28;32779;-71
2023/12/19 03:15:37;;;;;;;45.60;25.60;;;;;;;-146.25;100.00;52619.63;2071391;28;35988;-71
2023/12/19 03:16:39;;;;;;;44.30;24.95;;;;;;;-146.25;100.00;52637.88;2072351;28;33112;-70
2023/12/19 03:17:41;;;;;;;46.20;26.05;;;;;;;-146.25;100.00;52643.97;2080734;28;37415;-71
2023/12/19 03:18:45;;;;;;;43.28;23.83;;;;;;;-146.25;100.00;52641.94;2072439;28;20108;-71
2023/12/19 03:19:47;;;;;;;43.83;24.67;;;;;;;-146.25;100.00;52629.75;2071999;28;37446;-71
2023/12/19 03:20:49;;;;;;;43.97;24.00;;;;;;;-146.25;100.00;52635.84;2080752;28;33813;-71
2023/12/19 03:21:50;;;;;;;44.78;25.25;;;;;;;-146.25;100.00;52633.81;2081049;28;20085;-70
2023/12/19 03:22:52;;;;;;;48.55;26.23;;;;;;;-146.25;100.00;52674.38;2080739;28;33672;-71
2023/12/19 03:23:54;;;;;;;45.67;25.48;;;;;;;-146.25;100.00;52627.75;2080547;28;35134;-71
2023/12/19 03:24:56;;;;;;;42.33;24.65;;;;;;;-146.25;100.00;52643.97;2081078;28;22260;-71
2023/12/19 03:25:58;;;;;;;45.80;25.20;;;;;;;-146.25;100.00;52595.28;2080420;28;40290;-71
2023/12/19 03:26:59;;;;;;;37.53;23.17;;;;;;;-146.25;100.00;52595.28;2081456;28;20050;-71
2023/12/19 03:28:01;;;;;;;40.90;24.08;;;;;;;-146.25;100.00;52631.78;2080377;28;33376;-71
2023/12/19 03:29:03;;;;;;;42.20;24.63;;;;;;;-146.25;100.00;52639.91;2071294;28;33327;-71
2023/12/19 03:30:06;;;;;;;36.30;22.50;;;;;;;-146.25;100.00;52593.25;2072422;28;21511;-71
2023/12/19 03:31:08;;;;;;;38.83;23.90;;;;;;;-146.25;100.00;52641.94;2081029;28;20182;-71
2023/12/19 03:32:12;;;;;;;37.30;23.35;;;;;;;-146.25;100.00;52609.50;2080718;28;31936;-71
2023/12/19 03:33:14;;;;;;;41.42;23.15;;;;;;;-146.25;100.00;52591.25;2080741;28;38346;-71
2023/12/19 03:34:16;;;;;;;39.67;22.58;;;;;;;-146.25;100.00;52627.75;2072106;28;31567;-71
2023/12/19 03:35:18;;;;;;;40.97;23.95;;;;;;;-146.25;100.00;52674.38;2071706;28;35565;-71
2023/12/19 03:36:20;;;;;;;43.92;23.25;;;;;;;-146.25;100.00;52621.66;2072386;28;30636;-71
2023/12/19 03:37:24;;;;;;;41.13;22.60;;;;;;;-146.25;100.00;52617.59;2081435;28;20034;-71
2023/12/19 03:38:26;;;;;;;38.75;22.83;;;;;;;-146.25;100.00;52605.44;2080418;28;39482;-71
2023/12/19 03:39:30;;;;;;;41.28;22.48;;;;;;;-146.25;100.00;52609.50;2081277;28;20033;-70
2023/12/19 03:40:33;;;;;;;38.38;22.98;;;;;;;-146.25;100.00;52629.75;2081099;28;30162;-71
2023/12/19 03:41:37;;;;;;;38.75;22.30;;;;;;;-146.25;100.00;52599.34;2080623;28;35867;-70
2023/12/19 03:42:39;;;;;;;42.03;22.95;;;;;;;-146.25;100.00;52656.13;2080527;28;33393;-70
2023/12/19 03:43:41;;;;;;;38.80;22.75;;;;;;;-146.25;100.00;52656.13;2071671;28;35907;-70
2023/12/19 03:44:45;;;;;;;38.42;23.52;;;;;;;-146.25;100.00;52627.75;2071554;28;36748;-71
2023/12/19 03:45:47;;;;;;;36.80;22.52;;;;;;;-146.25;100.00;52672.34;2081055;28;20037;-71
2023/12/19 03:46:48;;;;;;;39.85;23.27;;;;;;;-146.25;100.00;52662.22;2079894;28;37920;-71
2023/12/19 03:47:50;;;;;;;38.47;22.80;;;;;;;-146.25;100.00;52668.28;2080749;28;32079;-71
2023/12/19 03:48:52;;;;;;;37.42;21.63;;;;;;;-146.25;100.00;52639.91;2080460;28;33053;-72
2023/12/19 03:49:54;;;;;;;36.40;21.67;;;;;;;-146.25;100.00;52635.84;2071180;28;36840;-71
2023/12/19 03:50:56;;;;;;;37.03;21.02;;;;;;;-146.25;100.00;52637.88;2072522;28;20777;-72
2023/12/19 03:51:58;;;;;;;35.10;21.30;;;;;;;-146.25;100.00;52603.41;2071920;28;35659;-71
2023/12/19 03:53:00;;;;;;;37.58;21.77;;;;;;;-146.25;100.00;52607.47;2079904;28;32217;-71
2023/12/19 03:54:01;;;;;;;34.85;20.77;;;;;;;-146.25;100.00;52623.69;2071794;28;35331;-71
2023/12/19 03:55:08;;;;;;;33.40;21.35;;;;;;;-146.25;100.00;52635.84;2071795;28;35093;-71
2023/12/19 03:56:11;;;;;;;34.80;21.20;;;;;;;-146.25;100.00;52639.91;2081434;28;20052;-71
2023/12/19 03:57:13;;;;;;;33.13;20.70;;;;;;;-146.25;100.00;52645.97;2080194;28;38269;-72
2023/12/19 03:58:15;;;;;;;33.20;20.40;;;;;;;-146.25;100.00;52635.84;2080034;28;32003;-71
2023/12/19 03:59:16;;;;;;;36.72;21.10;;;;;;;-146.25;100.00;52633.81;2080001;28;34341;-71
2023/12/19 04:00:18;;;;;;;32.25;20.25;;;;;;;-146.25;100.00;52627.75;2080261;28;37424;-72
2023/12/19 04:01:20;;;;;;;35.25;20.35;;;;;;;-146.25;100.00;52635.84;2080560;28;20041;-71
2023/12/19 04:02:22;;;;;;;32.90;19.95;;;;;;;-146.25;100.00;52619.63;2080325;28;37167;-71
2023/12/19 04:03:26;;;;;;;31.20;19.95;;;;;;;-146.25;100.00;52623.69;2081727;28;20054;-71
2023/12/19 04:04:27;;;;;;;30.00;19.08;;;;;;;-146.25;100.00;52686.53;2080553;28;34918;-71
2023/12/19 04:05:29;;;;;;;33.22;19.27;;;;;;;-146.25;100.00;52643.97;2079890;28;37681;-71
2023/12/19 04:06:31;;;;;;;30.85;19.38;;;;;;;-146.25;100.00;52650.03;2080121;28;34749;-71
2023/12/19 04:07:33;;;;;;;32.45;19.63;;;;;;;-146.25;100.00;52635.84;2080077;28;37694;-71
2023/12/19 04:08:35;;;;;;;30.13;19.30;;;;;;;-146.25;100.00;52635.84;2080760;28;32619;-70
2023/12/19 04:09:37;;;;;;;29.92;19.17;;;;;;;-146.25;100.00;52615.56;2080433;28;33119;-71
2023/12/19 04:10:39;;;;;;;29.75;18.50;;;;;;;-146.25;100.00;52623.69;2071580;28;37871;-71
2023/12/19 04:11:47;;;;;;;30.80;19.20;;;;;;;-146.25;100.00;52631.78;2072689;28;20051;-70
2023/12/19 04:12:50;;;;;;;28.85;17.90;;;;;;;-146.25;100.00;52609.50;2081247;28;20115;-71
2023/12/19 04:13:51;;;;;;;30.55;17.88;;;;;;;-146.25;100.00;52656.13;2080577;28;32328;-71
2023/12/19 04:14:53;;;;;;;30.75;18.65;;;;;;;-146.25;100.00;52607.47;2080327;28;35706;-71
2023/12/19 04:15:59;;;;;;;28.98;18.42;;;;;;;-146.25;100.00;52637.88;2080393;28;36532;-72
2023/12/19 04:17:01;;;;;;;28.83;17.77;;;;;;;-146.25;100.00;52601.38;2080497;28;36468;-71
2023/12/19 04:18:03;;;;;;;28.90;18.70;;;;;;;-146.25;100.00;52637.88;2080889;28;20065;-71
2023/12/19 04:19:04;;;;;;;27.95;17.35;;;;;;;-146.25;100.00;52625.72;2080594;28;35426;-72
2023/12/19 04:20:07;;;;;;;28.20;17.15;;;;;;;-146.25;100.00;52619.63;2080419;28;33684;-71
2023/12/19 04:21:09;;;;;;;27.42;17.50;;;;;;;-146.25;100.00;52639.91;2080693;28;21967;-71
2023/12/19 04:22:11;;;;;;;28.58;17.83;;;;;;;-146.25;100.00;52635.84;2080071;28;33641;-71
2023/12/19 04:23:13;;;;;;;24.60;16.20;;;;;;;-146.25;100.00;52643.97;2081025;28;20048;-71
2023/12/19 04:24:15;;;;;;;27.35;16.30;;;;;;;-146.25;100.00;52631.78;2080566;28;31491;-71
2023/12/19 04:25:16;;;;;;;25.17;16.17;;;;;;;-146.25;100.00;52648.00;2080879;28;32756;-70
2023/12/19 04:26:19;;;;;;;24.92;16.23;;;;;;;-146.25;100.00;52629.75;2080309;28;35671;-71
2023/12/19 04:27:21;;;;;;;23.10;14.85;;;;;;;-146.25;100.00;52623.69;2071562;28;39888;-71
2023/12/19 04:28:23;;;;;;;22.48;15.52;;;;;;;-146.25;100.00;52635.84;2072362;28;20027;-71
2023/12/19 04:29:24;;;;;;;25.33;14.52;;;;;;;-146.25;100.00;52650.03;2080368;28;39167;-71
2023/12/19 04:30:26;;;;;;;23.92;14.43;;;;;;;-146.25;100.00;52623.69;2080385;28;33339;-71
2023/12/19 04:31:28;;;;;;;24.40;14.82;;;;;;;-146.25;100.00;52637.88;2080221;28;34297;-71
2023/12/19 04:32:33;;;;;;;21.50;14.23;;;;;;;-146.25;100.00;52615.56;2080348;28;20038;-71
2023/12/19 04:33:35;;;;;;;21.67;13.88;;;;;;;-146.25;100.00;52645.97;2081143;28;20943;-71
2023/12/19 04:34:36;;;;;;;21.40;13.93;;;;;;;-146.25;100.00;52615.56;2071300;28;38081;-71
2023/12/19 04:35:39;;;;;;;22.95;13.85;;;;;;;-146.25;100.00;52597.31;2071774;28;33064;-70
2023/12/19 04:36:41;;;;;;;18.42;13.05;;;;;;;-146.25;100.00;52615.56;2079958;28;34452;-71
2023/12/19 04:37:43;;;;;;;20.73;13.82;;;;;;;-146.25;100.00;52629.75;2080072;28;37004;-71